AirNav   Everest Fuels
 
 1125 users online  

07AZ Peoples Hangar Heliport
Scottsdale, Arizona, USA


FAA INFORMATION EFFECTIVE 08 SEPTEMBER 2022

Location

FAA Identifier: 07AZ
Lat/Long: 33-37-48.4068N 111-54-32.4288W
33-37.806780N 111-54.540480W
33.6301130,-111.9090080
(estimated)
Elevation: 1497.7 ft. / 456 m (estimated)
From city: 8 miles N of SCOTTSDALE, AZ
Time zone: UTC +0 (year round; does not observe DST)
Zip code: 85260

Heliport Operations

Heliport use: Private use. Permission required prior to landing
Activation date: 05/2022
Control tower: no
ARTCC: ALBUQUERQUE CENTER
FSS: PRESCOTT FLIGHT SERVICE STATION
Attendance: 
Segmented circle: no

Heliport Communications

WX ASOS at SDL (0.4 nm S): PHONE 480-483-3049
WX ASOS at DVT (9 nm W): 126.5 (623-587-7764)
WX AWOS-1 at 18AZ (11 nm N): 125.625 (480-488-7882)
WX ASOS at PHX (13 nm SW): PHONE 602-231-8557
WX ASOS at FFZ (14 nm SE): PHONE 480-641-4111

Nearby radio navigation aids

VOR radial/distance  VOR name  Freq  Var
PXRr003/12.2PHOENIX VORTAC115.6012E
IWAr314/23.5WILLIE VORTAC113.3013E

Heliport Services

Runway Information

Helipad H1

Dimensions: 35 x 35 ft. / 11 x 11 m
Surface: concrete
Operational restrictions: TLOF 35X35 FT; FATO 56X56 FT; INGRESS/EGRESS 090.
Latitude: 33-37.806780N
Longitude: 111-54.540480W
Elevation: 1497.7 ft.
Traffic pattern: leftleft

Heliport Ownership and Management from official FAA records

Ownership: Privately-owned
Owner: CITY OF SCOTTSDALE
3939 CIVIC CENTER PLAZA
SCOTTSDALE, AZ 85251
Phone 480-312-2321
Manager: CHRIS PEOPLES
15902 N 80TH ST.
SCOTTSDALE, AZ 85251
Phone 480-749-2696

Heliport Operational Statistics

Aircraft based on the field: 1
Helicopters: 1
    
Aircraft operations: 5/year
100% local general aviation

Instrument Procedures

There are no published instrument procedures at 07AZ.

Some nearby airports with instrument procedures:

KSDL - Scottsdale Airport (0 nm S)
KDVT - Phoenix Deer Valley Airport (9 nm W)
KPHX - Phoenix Sky Harbor International Airport (13 nm SW)
KFFZ - Falcon Field Airport (14 nm SE)
P19 - Stellar Airpark (20 nm S)
 
Loc | Ops | Rwys | IFR | FBO | Links
Com | Nav | Svcs | Stats | Notes
Aerial photo
No photo
 
Airport distance calculator
Flying to Peoples Hangar Heliport? Find the distance to fly.

From to 07AZ

Sunrise and sunset
Times for 02-Oct-2022
 Zulu (UTC)
Morning civil twilight12:59
Sunrise13:24
Sunset01:10
Evening civil twilight01:35

Current date and time
Zulu (UTC)  02-Oct-2022 21:54:33
 
METAR
KSDL 022053Z 27005KT 10SM CLR 34/12 A2989 RMK AO2 SLP094 T03440117 58021
KDVT 
8nm W 
022053Z VRB03KT 10SM CLR 33/12 A2988 RMK AO2 SLP092 T03330117 58021
KFFZ 
14nm SE 
022054Z 26003G14KT 10SM CLR 34/11 A2986 RMK AO2 SLP087 T03390111 58024
KPHX 
14nm SW 
022051Z VRB03KT 10SM FEW100 SCT250 34/12 A2984 RMK AO2 SLP084 CB DSNT NW T03440117 58023 $
TAF
KSDL 021720Z 0218/0318 VRB04KT P6SM FEW100 FEW150 FM022100 21007KT P6SM FEW100 FEW150 FM030300 04005KT P6SM FEW100 SCT150 SCT250 FM030800 VRB03KT P6SM FEW100 FEW150
KDVT 
8nm W 
021720Z 0218/0318 18008KT P6SM FEW100 FEW150 FM022200 23009KT P6SM FEW100 FEW150 FM030400 03008KT P6SM FEW100 SCT150 SCT250 FM030900 VRB04KT P6SM FEW100 FEW150
KPHX 
14nm SW 
021720Z 0218/0324 16007KT P6SM FEW100 FEW150 FM022200 21007KT P6SM FEW100 FEW150 FM030000 25006KT P6SM FEW100 FEW150 FM030400 10005KT P6SM FEW100 SCT150 SCT250 FM031700 14008KT P6SM FEW100 FEW150 FM032100 28008KT P6SM FEW100 FEW150
NOTAMs
Click for the latest NOTAMs
NOTAMs are issued by the DoD/FAA and will open in a separate window not controlled by AirNav.

 

 
 

Would you like to see your business listed on this page?

 If your business provides an interesting product or service to pilots, flight crews, aircraft, or users of the Peoples Hangar Heliport, you should consider listing it here.  To start the listing process, click on the button below
 
Add a business
 

Other Pages about Peoples Hangar Heliport

Update a link
 
Copyright © AirNav, LLC. All rights reserved. Privacy Policy  Contact